createdAt,value
2022-12-14T00:01:28.110Z,85.12
2022-12-14T00:03:57.061Z,86.57
2022-12-14T00:06:27.773Z,87.17
2022-12-14T00:08:57.660Z,84.31
2022-12-14T00:11:25.517Z,85.53
2022-12-14T00:13:53.965Z,86.59
2022-12-14T00:16:22.392Z,86.67
2022-12-14T00:18:50.325Z,87.00
2022-12-14T00:21:17.847Z,86.53
2022-12-14T00:23:47.049Z,85.66
2022-12-14T00:26:15.172Z,84.61
2022-12-14T00:28:42.968Z,84.32
2022-12-14T00:31:10.470Z,87.03
2022-12-14T00:33:38.495Z,84.61
2022-12-14T00:36:08.380Z,85.46
2022-12-14T00:38:36.504Z,85.23
2022-12-14T00:41:05.952Z,84.35
2022-12-14T00:43:33.724Z,83.75
2022-12-14T00:46:01.483Z,86.18
2022-12-14T00:48:29.666Z,86.89
2022-12-14T00:50:57.675Z,85.06
2022-12-14T00:53:25.537Z,84.93
2022-12-14T00:55:53.141Z,83.38
2022-12-14T00:58:22.420Z,87.73
2022-12-14T01:00:58.838Z,87.22
2022-12-14T01:03:26.792Z,86.46
2022-12-14T01:05:54.928Z,85.06
2022-12-14T01:08:23.045Z,86.10
2022-12-14T01:10:50.565Z,85.08
2022-12-14T01:13:18.189Z,85.80
2022-12-14T01:15:47.192Z,84.46
2022-12-14T01:18:14.834Z,84.68
2022-12-14T01:20:42.352Z,84.18
2022-12-14T01:23:09.802Z,83.28
2022-12-14T01:25:37.309Z,83.97
2022-12-14T01:28:05.306Z,84.55
2022-12-14T01:30:32.996Z,84.26
2022-12-14T01:33:02.082Z,84.44
2022-12-14T01:35:29.820Z,82.37
2022-12-14T01:37:57.316Z,82.96
2022-12-14T01:40:24.846Z,83.04
2022-12-14T01:42:52.350Z,82.96
2022-12-14T01:45:21.583Z,80.91
2022-12-14T01:47:50.566Z,80.86
2022-12-14T01:50:21.473Z,79.86
2022-12-14T01:52:49.259Z,80.82
2022-12-14T01:55:20.195Z,80.85
2022-12-14T01:57:50.819Z,80.63
2022-12-14T02:00:18.723Z,79.90
2022-12-14T02:02:50.934Z,80.64
2022-12-14T02:05:21.318Z,80.17
2022-12-14T02:07:49.890Z,80.46
2022-12-14T02:10:17.759Z,80.78
2022-12-14T02:12:47.156Z,80.16
2022-12-14T02:15:14.617Z,80.10
2022-12-14T02:17:42.825Z,80.77
2022-12-14T02:20:10.706Z,80.32
2022-12-14T02:22:46.304Z,79.86
2022-12-14T02:25:21.503Z,81.93
2022-12-14T02:28:06.276Z,80.32
2022-12-14T02:30:37.651Z,79.90
2022-12-14T02:33:27.142Z,78.33
2022-12-14T02:35:56.484Z,80.85
2022-12-14T02:38:33.772Z,79.49
2022-12-14T02:41:02.943Z,79.26
2022-12-14T02:43:31.303Z,81.15
2022-12-14T02:46:01.437Z,80.50
2022-12-14T02:48:34.154Z,80.28
2022-12-14T02:51:09.547Z,80.76
2022-12-14T02:53:40.127Z,79.09
2022-12-14T02:56:09.953Z,77.98
2022-12-14T02:58:40.254Z,78.79
2022-12-14T03:01:13.106Z,82.63
2022-12-14T03:03:40.687Z,83.28
2022-12-14T03:06:14.758Z,81.14
2022-12-14T03:08:42.875Z,82.94
2022-12-14T03:11:10.860Z,80.53
2022-12-14T03:13:38.789Z,79.95
2022-12-14T03:16:07.780Z,79.62
2022-12-14T03:18:39.122Z,79.13
2022-12-14T03:21:08.729Z,77.89
2022-12-14T03:23:39.499Z,79.53
2022-12-14T03:26:12.244Z,81.12
2022-12-14T03:28:45.671Z,81.64
2022-12-14T03:31:16.592Z,79.94
2022-12-14T03:33:46.252Z,79.88
2022-12-14T03:36:17.504Z,80.32
2022-12-14T03:38:45.751Z,80.61
2022-12-14T03:41:15.040Z,83.95
2022-12-14T03:43:50.050Z,82.85
2022-12-14T03:46:19.249Z,81.67
2022-12-14T03:48:48.693Z,82.34
2022-12-14T03:51:19.363Z,79.08
2022-12-14T03:53:47.805Z,78.95
2022-12-14T03:56:20.512Z,79.75
2022-12-14T03:58:57.255Z,80.16
2022-12-14T04:01:31.880Z,80.79
2022-12-14T04:04:05.362Z,83.36
2022-12-14T04:06:40.566Z,83.40
2022-12-14T04:09:18.975Z,83.30
2022-12-14T04:12:09.632Z,80.51
2022-12-14T04:14:55.461Z,80.82
2022-12-14T04:17:41.828Z,78.11
2022-12-14T04:20:11.340Z,80.47
2022-12-14T04:22:39.468Z,79.58
2022-12-14T04:25:25.428Z,80.97
2022-12-14T04:27:53.184Z,81.27
2022-12-14T04:30:20.151Z,80.39
2022-12-14T04:32:50.336Z,82.52
2022-12-14T04:35:21.592Z,82.72
2022-12-14T04:37:49.734Z,81.19
2022-12-14T04:40:18.159Z,79.66
2022-12-14T04:42:46.949Z,78.90
2022-12-14T04:45:15.616Z,78.95
2022-12-14T04:47:43.497Z,81.78
2022-12-14T04:50:11.363Z,81.31
2022-12-14T04:52:41.354Z,82.54
2022-12-14T04:55:10.240Z,81.88
2022-12-14T04:57:38.602Z,83.82
2022-12-14T05:00:06.753Z,85.35
2022-12-14T05:02:36.582Z,83.34
2022-12-14T05:05:06.311Z,83.32
2022-12-14T05:07:35.928Z,86.36
2022-12-14T05:10:06.763Z,87.58
2022-12-14T05:12:40.734Z,86.89
2022-12-14T05:15:11.661Z,87.79
2022-12-14T05:17:39.560Z,92.32
2022-12-14T05:20:07.718Z,90.24
2022-12-14T05:22:35.245Z,88.78
2022-12-14T05:25:02.781Z,88.12
2022-12-14T05:27:31.838Z,87.60
2022-12-14T05:29:59.377Z,88.15
2022-12-14T05:32:27.155Z,90.88
2022-12-14T05:34:54.615Z,90.59
2022-12-14T05:37:22.127Z,92.40
2022-12-14T05:39:49.857Z,93.63
2022-12-14T05:42:17.601Z,93.11
2022-12-14T05:44:46.604Z,90.01
2022-12-14T05:47:14.513Z,92.61
2022-12-14T05:49:42.235Z,95.90
2022-12-14T05:52:10.017Z,97.11
2022-12-14T05:54:37.680Z,96.67
2022-12-14T05:57:06.800Z,97.18
2022-12-14T05:59:34.440Z,96.73
2022-12-14T06:02:03.501Z,91.85
2022-12-14T06:04:31.139Z,94.97
2022-12-14T06:06:58.621Z,95.22
2022-12-14T06:09:26.212Z,96.91
2022-12-14T06:11:53.676Z,97.07
2022-12-14T06:14:21.284Z,98.46
2022-12-14T06:16:48.777Z,98.53
2022-12-14T06:19:17.619Z,98.58
2022-12-14T06:21:45.435Z,98.35
2022-12-14T06:24:13.184Z,97.38
2022-12-14T06:26:41.866Z,97.16
2022-12-14T06:29:14.707Z,96.60
2022-12-14T06:31:42.476Z,96.44
2022-12-14T06:34:10.405Z,96.41
2022-12-14T06:36:40.685Z,96.21
2022-12-14T06:39:12.245Z,95.18
2022-12-14T06:41:40.188Z,93.52
2022-12-14T06:44:08.717Z,95.60
2022-12-14T06:46:36.325Z,94.67
2022-12-14T06:49:04.574Z,93.97
2022-12-14T06:51:32.178Z,94.25
2022-12-14T06:54:01.008Z,94.77
2022-12-14T06:56:28.631Z,97.33
2022-12-14T06:58:56.328Z,93.42
2022-12-14T07:01:24.662Z,93.38
2022-12-14T07:03:53.439Z,92.98
2022-12-14T07:06:20.963Z,93.72
2022-12-14T07:08:49.329Z,91.14
2022-12-14T07:11:18.357Z,93.51
2022-12-14T07:13:45.875Z,93.45
2022-12-14T07:16:17.171Z,93.88
2022-12-14T07:18:44.872Z,96.14
2022-12-14T07:21:13.247Z,92.20
2022-12-14T07:23:41.847Z,93.50
2022-12-14T07:26:10.932Z,93.78
2022-12-14T07:28:40.632Z,93.66
2022-12-14T07:31:11.695Z,92.82
2022-12-14T07:33:39.434Z,92.73
2022-12-14T07:36:09.235Z,94.32
2022-12-14T07:38:38.014Z,92.90
2022-12-14T07:41:07.243Z,91.82
2022-12-14T07:43:35.052Z,90.37
2022-12-14T07:46:07.038Z,91.16
2022-12-14T07:48:34.910Z,83.66
2022-12-14T07:51:04.282Z,81.17
2022-12-14T07:53:32.145Z,78.96
2022-12-14T07:56:03.176Z,80.20
2022-12-14T07:58:30.851Z,83.08
2022-12-14T08:01:11.277Z,84.99
2022-12-14T08:03:39.772Z,81.74
2022-12-14T08:06:07.479Z,79.13
2022-12-14T08:08:35.361Z,79.27
2022-12-14T08:11:02.899Z,81.34
2022-12-14T08:13:31.055Z,83.99
2022-12-14T08:16:02.945Z,82.66
2022-12-14T08:18:33.281Z,84.45
2022-12-14T08:21:01.124Z,84.57
2022-12-14T08:23:29.613Z,84.56
2022-12-14T08:25:57.802Z,82.28
2022-12-14T08:28:25.403Z,81.46
2022-12-14T08:30:53.039Z,80.98
2022-12-14T08:33:21.179Z,80.06
2022-12-14T08:35:49.990Z,82.38
2022-12-14T08:38:17.503Z,81.98
2022-12-14T08:40:44.974Z,78.90
2022-12-14T08:43:12.695Z,78.23
2022-12-14T08:45:40.377Z,79.07
2022-12-14T08:48:08.245Z,79.43
2022-12-14T08:50:35.943Z,81.08
2022-12-14T08:53:04.989Z,81.16
2022-12-14T08:55:38.229Z,80.09
2022-12-14T08:58:06.603Z,79.08
2022-12-14T09:00:34.174Z,78.50
2022-12-14T09:03:01.904Z,79.23
2022-12-14T09:05:29.652Z,81.32
2022-12-14T09:07:57.234Z,82.04
2022-12-14T09:10:26.128Z,80.28
2022-12-14T09:12:53.812Z,80.26
2022-12-14T09:15:21.853Z,79.74
2022-12-14T09:17:50.811Z,80.04
2022-12-14T09:20:19.045Z,80.69
2022-12-14T09:22:46.884Z,79.32
2022-12-14T09:25:14.586Z,78.49
2022-12-14T09:27:43.645Z,78.57
2022-12-14T09:30:11.577Z,78.25
2022-12-14T09:32:40.146Z,78.14
2022-12-14T09:35:08.543Z,77.49
2022-12-14T09:37:36.322Z,79.31
2022-12-14T09:40:04.190Z,80.32
2022-12-14T09:42:50.768Z,79.09
2022-12-14T09:45:23.074Z,78.68
2022-12-14T09:47:54.422Z,79.42
2022-12-14T09:50:23.288Z,81.28
2022-12-14T09:52:52.703Z,79.77
2022-12-14T09:55:24.320Z,79.95
2022-12-14T09:57:54.548Z,79.04
2022-12-14T10:00:22.105Z,80.31
2022-12-14T10:02:53.226Z,79.53
2022-12-14T10:05:27.196Z,79.18
2022-12-14T10:07:58.095Z,77.05
2022-12-14T10:10:29.648Z,77.50
2022-12-14T10:13:04.949Z,77.27
2022-12-14T10:15:39.984Z,76.15
2022-12-14T10:18:57.453Z,76.04
2022-12-14T10:21:16.891Z,77.04
2022-12-14T10:23:48.151Z,75.43
2022-12-14T10:26:16.961Z,74.99
2022-12-14T10:28:46.297Z,75.35
2022-12-14T10:31:14.937Z,75.74
2022-12-14T10:33:44.876Z,75.85
2022-12-14T10:36:21.124Z,75.43
2022-12-14T10:38:53.532Z,75.10
2022-12-14T10:41:26.240Z,75.25
2022-12-14T10:43:58.407Z,74.77
2022-12-14T10:46:30.984Z,73.78
2022-12-14T10:49:05.340Z,73.53
2022-12-14T10:51:37.526Z,72.35
2022-12-14T10:54:12.193Z,74.40
2022-12-14T10:56:41.794Z,73.89
2022-12-14T10:59:36.715Z,75.52
2022-12-14T11:02:09.401Z,75.61
2022-12-14T11:04:38.978Z,73.76
2022-12-14T11:07:08.609Z,73.95
2022-12-14T11:09:37.286Z,73.50
2022-12-14T11:12:07.542Z,76.46
2022-12-14T11:14:37.511Z,77.08
2022-12-14T11:17:05.545Z,77.96
2022-12-14T11:19:33.375Z,75.07
2022-12-14T11:22:21.969Z,75.63
2022-12-14T11:24:51.567Z,73.23
2022-12-14T11:27:21.465Z,74.52
2022-12-14T11:29:51.991Z,75.77
2022-12-14T11:32:22.130Z,76.04
2022-12-14T11:34:57.345Z,75.56
2022-12-14T11:37:26.484Z,76.10
2022-12-14T11:39:56.057Z,73.85
2022-12-14T11:42:24.345Z,75.35
2022-12-14T11:44:54.077Z,72.06
2022-12-14T11:47:22.714Z,73.92
2022-12-14T11:49:51.989Z,72.41
2022-12-14T11:52:22.089Z,73.12
2022-12-14T11:55:05.777Z,71.61
2022-12-14T11:57:35.838Z,72.11
2022-12-14T12:00:08.434Z,69.78
2022-12-14T12:02:38.198Z,71.03
2022-12-14T12:05:08.745Z,71.74
2022-12-14T12:07:36.848Z,68.74
2022-12-14T12:10:05.708Z,65.83
2022-12-14T12:12:33.467Z,67.66
2022-12-14T12:15:00.944Z,67.41
2022-12-14T12:17:40.027Z,68.90
2022-12-14T12:20:25.593Z,69.44
2022-12-14T12:22:53.796Z,69.42
2022-12-14T12:25:27.451Z,69.70
2022-12-14T12:28:01.505Z,67.96
2022-12-14T12:30:34.479Z,67.52
2022-12-14T12:33:22.493Z,66.97
2022-12-14T12:35:50.663Z,67.08
2022-12-14T12:38:19.954Z,67.32
2022-12-14T12:40:51.936Z,61.18
2022-12-14T12:43:20.433Z,62.56
2022-12-14T12:45:48.984Z,65.44
2022-12-14T12:48:18.148Z,65.55
2022-12-14T12:50:50.032Z,63.89
2022-12-14T12:53:21.353Z,61.75
2022-12-14T12:55:51.509Z,59.97
2022-12-14T12:58:21.201Z,62.10
2022-12-14T13:00:55.422Z,62.94
2022-12-14T13:03:25.821Z,64.71
2022-12-14T13:05:53.738Z,65.01
2022-12-14T13:08:24.431Z,62.24
2022-12-14T13:13:39.427Z,64.21
2022-12-14T13:16:09.397Z,61.63
2022-12-14T13:18:59.518Z,62.50
2022-12-14T13:21:31.864Z,62.39
2022-12-14T13:23:59.918Z,62.42
2022-12-14T13:26:57.678Z,64.92
2022-12-14T13:29:39.818Z,66.30
2022-12-14T13:32:14.894Z,66.75
2022-12-14T13:34:53.368Z,66.63
2022-12-14T13:37:38.577Z,66.26
2022-12-14T13:40:23.725Z,66.53
2022-12-14T13:42:54.576Z,67.14
2022-12-14T13:45:22.449Z,68.51
2022-12-14T13:47:52.144Z,68.49
2022-12-14T13:50:42.412Z,67.81
2022-12-14T13:53:14.321Z,66.02
2022-12-14T13:55:48.272Z,67.45
2022-12-14T13:58:19.591Z,67.78
2022-12-14T14:01:07.377Z,68.10
2022-12-14T14:03:48.051Z,68.22
2022-12-14T14:06:20.868Z,67.82
2022-12-14T14:08:49.669Z,68.69
2022-12-14T14:11:37.259Z,69.07
2022-12-14T14:14:08.880Z,68.02
2022-12-14T14:16:39.276Z,68.20
2022-12-14T14:19:19.318Z,68.64
2022-12-14T14:24:56.347Z,68.70
2022-12-14T14:27:25.045Z,68.71
2022-12-14T14:29:53.668Z,68.77
2022-12-14T14:32:42.753Z,68.17
2022-12-14T14:35:23.550Z,68.34
2022-12-14T14:38:00.153Z,67.69
2022-12-14T14:41:06.741Z,67.10
2022-12-14T14:43:27.396Z,70.76
2022-12-14T14:45:57.816Z,70.44
2022-12-14T14:48:28.818Z,70.27
2022-12-14T14:51:17.406Z,71.12
2022-12-14T14:53:46.256Z,71.03
2022-12-14T14:56:40.130Z,72.86
2022-12-14T14:59:28.826Z,74.62
2022-12-14T15:01:58.021Z,73.96
2022-12-14T15:04:29.673Z,73.56
2022-12-14T15:06:59.282Z,74.12
2022-12-14T15:09:31.732Z,74.42
2022-12-14T15:12:04.063Z,74.36
2022-12-14T15:14:35.437Z,74.05
2022-12-14T15:17:13.704Z,75.86
2022-12-14T15:19:47.801Z,75.36
2022-12-14T15:22:18.549Z,73.59
2022-12-14T15:24:49.834Z,77.99
2022-12-14T15:27:24.047Z,80.14
2022-12-14T15:29:52.310Z,82.52
2022-12-14T15:32:22.839Z,79.02
2022-12-14T15:34:54.704Z,77.79
2022-12-14T15:37:32.784Z,76.25
2022-12-14T15:40:05.038Z,75.68
2022-12-14T15:42:32.781Z,75.48
2022-12-14T15:45:08.070Z,75.04
2022-12-14T15:47:35.771Z,75.72
2022-12-14T15:50:24.322Z,75.86
2022-12-14T15:52:53.144Z,76.25
2022-12-14T15:55:40.189Z,79.53
2022-12-14T15:58:10.429Z,76.44
2022-12-14T16:00:42.537Z,76.65
2022-12-14T16:03:19.708Z,76.70
2022-12-14T16:05:47.491Z,76.54
2022-12-14T16:08:15.653Z,76.61
2022-12-14T16:10:45.409Z,80.56
2022-12-14T16:13:17.758Z,80.15
2022-12-14T16:15:46.281Z,78.73
2022-12-14T16:18:18.543Z,81.05
2022-12-14T16:20:47.726Z,79.34
2022-12-14T16:23:29.358Z,77.21
2022-12-14T16:26:00.248Z,76.89
2022-12-14T16:28:31.020Z,78.95
2022-12-14T16:31:02.582Z,77.64
2022-12-14T16:33:32.107Z,77.47
2022-12-14T16:36:07.260Z,78.13
2022-12-14T16:38:40.524Z,77.03
2022-12-14T16:41:09.914Z,75.85
2022-12-14T16:43:39.356Z,76.39
2022-12-14T16:46:16.267Z,76.12
2022-12-14T16:48:50.347Z,74.42
2022-12-14T16:52:05.522Z,74.50
2022-12-14T16:54:27.616Z,73.16
2022-12-14T16:57:03.849Z,72.71
2022-12-14T16:59:38.716Z,73.31
2022-12-14T17:02:08.506Z,72.93
2022-12-14T17:04:39.300Z,81.91
2022-12-14T17:07:07.000Z,77.53
2022-12-14T17:09:35.658Z,75.36
2022-12-14T17:12:14.305Z,73.66
2022-12-14T17:14:49.287Z,72.92
2022-12-14T17:17:19.543Z,72.38
2022-12-14T17:19:47.302Z,72.54
2022-12-14T17:22:18.996Z,72.85
2022-12-14T17:24:47.763Z,73.11
2022-12-14T17:27:17.471Z,73.34
2022-12-14T17:29:45.821Z,73.36
2022-12-14T17:32:15.809Z,72.44
2022-12-14T17:34:45.489Z,71.38
2022-12-14T17:37:16.234Z,71.65
2022-12-14T17:39:43.902Z,73.09
2022-12-14T17:42:12.551Z,73.62
2022-12-14T17:44:42.146Z,73.15
2022-12-14T17:47:13.030Z,73.50
2022-12-14T17:49:42.191Z,73.29
2022-12-14T17:52:17.428Z,73.48
2022-12-14T17:54:45.629Z,73.30
2022-12-14T17:57:16.485Z,71.21
2022-12-14T17:59:47.680Z,71.57
2022-12-14T18:02:27.010Z,71.47
2022-12-14T18:04:54.859Z,73.06
2022-12-14T18:07:22.589Z,72.38
2022-12-14T18:09:52.925Z,79.51
2022-12-14T18:12:23.603Z,85.40
2022-12-14T18:14:53.344Z,81.31
2022-12-14T18:17:21.047Z,76.00
2022-12-14T18:19:49.620Z,75.56
2022-12-14T18:22:17.633Z,75.09
2022-12-14T18:24:45.798Z,74.17
2022-12-14T18:27:15.223Z,73.63
2022-12-14T18:29:42.929Z,73.07
2022-12-14T18:32:14.252Z,74.15
2022-12-14T18:34:42.061Z,74.79
2022-12-14T18:37:09.736Z,74.21
2022-12-14T18:39:37.437Z,74.02
2022-12-14T18:42:05.235Z,73.45
2022-12-14T18:44:32.893Z,72.93
2022-12-14T18:47:20.355Z,72.69
2022-12-14T18:49:49.576Z,73.09
2022-12-14T18:52:17.305Z,72.58
2022-12-14T18:54:45.010Z,71.64
2022-12-14T18:57:12.689Z,71.67
2022-12-14T18:59:42.594Z,71.31
2022-12-14T19:02:15.307Z,71.25
2022-12-14T19:04:43.051Z,72.88
2022-12-14T19:07:12.097Z,72.01
2022-12-14T19:09:39.825Z,79.26
2022-12-14T19:12:08.368Z,82.37
2022-12-14T19:14:36.053Z,81.55
2022-12-14T19:17:03.735Z,82.86
2022-12-14T19:19:38.054Z,81.53
2022-12-14T19:22:09.016Z,76.81
2022-12-14T19:24:38.048Z,74.78
2022-12-14T19:27:06.087Z,73.93
2022-12-14T19:29:35.472Z,73.16
2022-12-14T19:32:05.673Z,73.18
2022-12-14T19:34:33.704Z,72.32
2022-12-14T19:37:01.466Z,72.32
2022-12-14T19:39:29.194Z,72.92
2022-12-14T19:41:58.305Z,73.75
2022-12-14T19:44:25.953Z,73.36
2022-12-14T19:46:53.658Z,73.80
2022-12-14T19:49:22.299Z,76.36
2022-12-14T19:51:50.014Z,77.79
2022-12-14T19:54:17.807Z,76.33
2022-12-14T19:56:45.543Z,76.03
2022-12-14T19:59:18.248Z,74.76
2022-12-14T20:01:48.145Z,73.80
2022-12-14T20:04:16.205Z,73.66
2022-12-14T20:06:43.927Z,75.63
2022-12-14T20:09:14.833Z,76.54
2022-12-14T20:11:42.558Z,76.62
2022-12-14T20:14:10.543Z,84.71
2022-12-14T20:16:40.152Z,89.30
2022-12-14T20:19:08.103Z,82.60
2022-12-14T20:21:35.904Z,79.06
2022-12-14T20:24:03.697Z,78.53
2022-12-14T20:26:31.413Z,79.84
2022-12-14T20:29:01.445Z,82.40
2022-12-14T20:31:29.270Z,83.24
2022-12-14T20:34:00.439Z,88.56
2022-12-14T20:36:28.718Z,89.90
2022-12-14T20:38:57.788Z,91.02
2022-12-14T20:41:26.297Z,90.41
2022-12-14T20:43:53.992Z,89.57
2022-12-14T20:46:26.473Z,91.19
2022-12-14T20:48:54.476Z,87.74
2022-12-14T20:51:24.052Z,89.20
2022-12-14T20:53:51.776Z,88.09
2022-12-14T20:56:20.294Z,85.72
2022-12-14T20:58:48.821Z,84.61
2022-12-14T21:01:17.505Z,86.90
2022-12-14T21:03:46.683Z,88.66
2022-12-14T21:06:15.448Z,90.78
2022-12-14T21:09:05.001Z,88.68
2022-12-14T21:11:51.474Z,85.41
2022-12-14T21:14:20.530Z,83.70
2022-12-14T21:16:48.453Z,82.12
2022-12-14T21:19:18.758Z,85.72
2022-12-14T21:21:53.059Z,87.64
2022-12-14T21:25:01.202Z,89.21
2022-12-14T21:27:11.909Z,89.25
2022-12-14T21:29:39.416Z,88.05
2022-12-14T21:32:07.297Z,88.99
2022-12-14T21:34:35.119Z,91.03
2022-12-14T21:37:02.757Z,88.87
2022-12-14T21:39:31.857Z,86.32
2022-12-14T21:42:10.393Z,87.01
2022-12-14T21:44:38.479Z,90.00
2022-12-14T21:47:06.798Z,89.73
2022-12-14T21:49:36.905Z,89.34
2022-12-14T21:52:07.519Z,91.45
2022-12-14T21:54:37.213Z,94.20
2022-12-14T21:57:21.932Z,92.99
2022-12-14T21:59:49.411Z,92.57
2022-12-14T22:02:17.820Z,88.91
2022-12-14T22:04:46.806Z,92.67
2022-12-14T22:07:15.648Z,89.86
2022-12-14T22:09:45.264Z,90.81
2022-12-14T22:12:18.697Z,90.40
2022-12-14T22:14:46.167Z,90.22
2022-12-14T22:17:13.993Z,94.62
2022-12-14T22:19:41.517Z,93.70
2022-12-14T22:22:13.910Z,95.96
2022-12-14T22:24:41.889Z,92.35
2022-12-14T22:27:11.517Z,90.36
2022-12-14T22:29:39.171Z,92.96
2022-12-14T22:32:07.153Z,90.24
2022-12-14T22:34:34.835Z,90.45
2022-12-14T22:37:02.401Z,90.90
2022-12-14T22:39:30.103Z,92.36
2022-12-14T22:41:57.777Z,94.92
2022-12-14T22:44:26.854Z,94.04
2022-12-14T22:46:54.556Z,95.22
2022-12-14T22:49:22.249Z,91.80
2022-12-14T22:51:50.400Z,89.19
2022-12-14T22:54:18.476Z,91.55
2022-12-14T22:56:47.301Z,91.74
2022-12-14T22:59:15.588Z,88.62
2022-12-14T23:01:49.679Z,89.02
2022-12-14T23:04:18.193Z,87.31
2022-12-14T23:06:46.083Z,84.83
2022-12-14T23:09:31.187Z,84.30
2022-12-14T23:12:21.533Z,87.78
2022-12-14T23:15:07.113Z,85.50
2022-12-14T23:17:53.501Z,84.74
2022-12-14T23:20:38.352Z,88.11
2022-12-14T23:23:24.156Z,85.16
2022-12-14T23:26:09.514Z,84.15
2022-12-14T23:28:54.864Z,85.39
2022-12-14T23:31:40.237Z,86.76
2022-12-14T23:34:26.388Z,84.75
2022-12-14T23:37:15.104Z,86.97
2022-12-14T23:40:04.572Z,87.33
2022-12-14T23:42:49.941Z,84.58
2022-12-14T23:45:35.362Z,85.88
2022-12-14T23:48:20.901Z,87.12
2022-12-14T23:51:07.054Z,84.82
2022-12-14T23:53:51.883Z,86.63
2022-12-14T23:56:36.803Z,89.92
2022-12-14T23:59:26.375Z,89.60
